sensor_id;sensor_type;location;lat;lon;timestamp;P1;durP1;ratioP1;P2;durP2;ratioP2
33184;SDS011;19550;42.872;25.494;2022-07-06T00:00:50;7.30;;;6.43;;
33184;SDS011;19550;42.872;25.494;2022-07-06T00:03:17;12.18;;;6.28;;
33184;SDS011;19550;42.872;25.494;2022-07-06T00:05:44;7.65;;;6.00;;
33184;SDS011;19550;42.872;25.494;2022-07-06T00:08:11;10.77;;;8.18;;
33184;SDS011;19550;42.872;25.494;2022-07-06T00:10:38;8.18;;;6.72;;
33184;SDS011;19550;42.872;25.494;2022-07-06T00:13:07;18.88;;;7.45;;
33184;SDS011;19550;42.872;25.494;2022-07-06T00:15:34;10.38;;;7.60;;
33184;SDS011;19550;42.872;25.494;2022-07-06T00:18:01;17.85;;;8.85;;
33184;SDS011;19550;42.872;25.494;2022-07-06T00:20:28;12.80;;;9.77;;
33184;SDS011;19550;42.872;25.494;2022-07-06T00:22:55;15.02;;;8.95;;
33184;SDS011;19550;42.872;25.494;2022-07-06T00:25:22;15.50;;;10.73;;
33184;SDS011;19550;42.872;25.494;2022-07-06T00:27:49;13.90;;;10.27;;
33184;SDS011;19550;42.872;25.494;2022-07-06T00:30:17;13.27;;;10.43;;
33184;SDS011;19550;42.872;25.494;2022-07-06T00:32:44;11.80;;;9.75;;
33184;SDS011;19550;42.872;25.494;2022-07-06T00:35:11;16.73;;;10.57;;
33184;SDS011;19550;42.872;25.494;2022-07-06T00:37:38;14.85;;;10.65;;
33184;SDS011;19550;42.872;25.494;2022-07-06T00:40:06;14.95;;;10.30;;
33184;SDS011;19550;42.872;25.494;2022-07-06T00:42:38;16.60;;;11.18;;
33184;SDS011;19550;42.872;25.494;2022-07-06T00:45:06;16.70;;;10.63;;
33184;SDS011;19550;42.872;25.494;2022-07-06T00:47:35;19.23;;;11.77;;
33184;SDS011;19550;42.872;25.494;2022-07-06T00:50:03;13.55;;;11.18;;
33184;SDS011;19550;42.872;25.494;2022-07-06T00:52:40;13.65;;;11.32;;
33184;SDS011;19550;42.872;25.494;2022-07-06T00:55:08;14.82;;;11.65;;
33184;SDS011;19550;42.872;25.494;2022-07-06T00:57:35;15.95;;;12.38;;
33184;SDS011;19550;42.872;25.494;2022-07-06T01:00:03;14.60;;;11.35;;
33184;SDS011;19550;42.872;25.494;2022-07-06T01:02:31;16.25;;;11.45;;
33184;SDS011;19550;42.872;25.494;2022-07-06T01:05:00;15.05;;;11.40;;
33184;SDS011;19550;42.872;25.494;2022-07-06T01:07:27;19.98;;;11.40;;
33184;SDS011;19550;42.872;25.494;2022-07-06T01:09:55;14.35;;;11.90;;
33184;SDS011;19550;42.872;25.494;2022-07-06T01:12:22;22.90;;;11.85;;
33184;SDS011;19550;42.872;25.494;2022-07-06T01:14:50;18.27;;;11.55;;
33184;SDS011;19550;42.872;25.494;2022-07-06T01:17:17;17.33;;;11.07;;
33184;SDS011;19550;42.872;25.494;2022-07-06T01:19:45;18.83;;;11.80;;
33184;SDS011;19550;42.872;25.494;2022-07-06T01:22:13;14.18;;;11.52;;
33184;SDS011;19550;42.872;25.494;2022-07-06T01:24:40;12.30;;;10.88;;
33184;SDS011;19550;42.872;25.494;2022-07-06T01:27:07;16.40;;;11.88;;
33184;SDS011;19550;42.872;25.494;2022-07-06T01:29:35;14.52;;;12.30;;
33184;SDS011;19550;42.872;25.494;2022-07-06T01:32:02;13.32;;;11.45;;
33184;SDS011;19550;42.872;25.494;2022-07-06T01:34:29;17.40;;;12.20;;
33184;SDS011;19550;42.872;25.494;2022-07-06T01:36:56;15.32;;;12.43;;
33184;SDS011;19550;42.872;25.494;2022-07-06T01:39:25;18.73;;;12.40;;
33184;SDS011;19550;42.872;25.494;2022-07-06T01:41:52;13.82;;;12.13;;
33184;SDS011;19550;42.872;25.494;2022-07-06T01:44:19;16.10;;;11.68;;
33184;SDS011;19550;42.872;25.494;2022-07-06T01:46:46;15.43;;;11.30;;
33184;SDS011;19550;42.872;25.494;2022-07-06T01:49:13;13.52;;;11.32;;
33184;SDS011;19550;42.872;25.494;2022-07-06T01:51:40;15.15;;;11.23;;
33184;SDS011;19550;42.872;25.494;2022-07-06T01:54:07;17.02;;;11.60;;
33184;SDS011;19550;42.872;25.494;2022-07-06T01:56:35;13.40;;;11.32;;
33184;SDS011;19550;42.872;25.494;2022-07-06T01:59:02;13.05;;;11.45;;
33184;SDS011;19550;42.872;25.494;2022-07-06T02:01:29;14.57;;;11.55;;
33184;SDS011;19550;42.872;25.494;2022-07-06T02:03:56;16.52;;;12.15;;
33184;SDS011;19550;42.872;25.494;2022-07-06T02:06:23;16.25;;;11.50;;
33184;SDS011;19550;42.872;25.494;2022-07-06T02:08:50;13.50;;;11.10;;
33184;SDS011;19550;42.872;25.494;2022-07-06T02:11:19;14.77;;;11.93;;
33184;SDS011;19550;42.872;25.494;2022-07-06T02:13:47;14.55;;;11.73;;
33184;SDS011;19550;42.872;25.494;2022-07-06T02:16:14;13.70;;;11.07;;
33184;SDS011;19550;42.872;25.494;2022-07-06T02:18:41;15.63;;;11.05;;
33184;SDS011;19550;42.872;25.494;2022-07-06T02:21:08;17.70;;;12.15;;
33184;SDS011;19550;42.872;25.494;2022-07-06T02:23:36;19.52;;;12.38;;
33184;SDS011;19550;42.872;25.494;2022-07-06T02:26:03;15.43;;;11.98;;
33184;SDS011;19550;42.872;25.494;2022-07-06T02:28:30;18.10;;;12.93;;
33184;SDS011;19550;42.872;25.494;2022-07-06T02:30:58;18.85;;;12.85;;
33184;SDS011;19550;42.872;25.494;2022-07-06T02:33:25;13.60;;;12.13;;
33184;SDS011;19550;42.872;25.494;2022-07-06T02:35:52;19.52;;;12.60;;
33184;SDS011;19550;42.872;25.494;2022-07-06T02:38:19;18.52;;;13.23;;
33184;SDS011;19550;42.872;25.494;2022-07-06T02:40:47;21.23;;;13.05;;
33184;SDS011;19550;42.872;25.494;2022-07-06T02:43:14;19.05;;;12.60;;
33184;SDS011;19550;42.872;25.494;2022-07-06T02:45:41;18.25;;;12.38;;
33184;SDS011;19550;42.872;25.494;2022-07-06T02:48:09;14.60;;;11.85;;
33184;SDS011;19550;42.872;25.494;2022-07-06T02:50:36;19.33;;;11.93;;
33184;SDS011;19550;42.872;25.494;2022-07-06T02:53:05;17.25;;;12.35;;
33184;SDS011;19550;42.872;25.494;2022-07-06T02:55:32;15.68;;;12.50;;
33184;SDS011;19550;42.872;25.494;2022-07-06T02:57:59;14.70;;;12.40;;
33184;SDS011;19550;42.872;25.494;2022-07-06T03:00:26;14.65;;;12.77;;
33184;SDS011;19550;42.872;25.494;2022-07-06T03:02:53;18.95;;;13.52;;
33184;SDS011;19550;42.872;25.494;2022-07-06T03:05:21;13.63;;;12.15;;
33184;SDS011;19550;42.872;25.494;2022-07-06T03:07:49;13.32;;;11.93;;
33184;SDS011;19550;42.872;25.494;2022-07-06T03:10:16;16.15;;;12.63;;
33184;SDS011;19550;42.872;25.494;2022-07-06T03:12:43;14.20;;;12.02;;
33184;SDS011;19550;42.872;25.494;2022-07-06T03:15:10;13.18;;;11.77;;
33184;SDS011;19550;42.872;25.494;2022-07-06T03:17:37;14.98;;;12.73;;
33184;SDS011;19550;42.872;25.494;2022-07-06T03:20:05;16.13;;;12.27;;
33184;SDS011;19550;42.872;25.494;2022-07-06T03:22:34;19.48;;;13.48;;
33184;SDS011;19550;42.872;25.494;2022-07-06T03:25:01;17.65;;;12.50;;
33184;SDS011;19550;42.872;25.494;2022-07-06T03:27:28;18.67;;;12.68;;
33184;SDS011;19550;42.872;25.494;2022-07-06T03:29:55;18.80;;;12.30;;
33184;SDS011;19550;42.872;25.494;2022-07-06T03:32:22;15.18;;;13.20;;
33184;SDS011;19550;42.872;25.494;2022-07-06T03:34:49;16.77;;;12.25;;
33184;SDS011;19550;42.872;25.494;2022-07-06T03:37:16;15.95;;;12.38;;
33184;SDS011;19550;42.872;25.494;2022-07-06T03:39:44;14.18;;;11.85;;
33184;SDS011;19550;42.872;25.494;2022-07-06T03:42:11;16.27;;;12.18;;
33184;SDS011;19550;42.872;25.494;2022-07-06T03:44:38;18.17;;;12.43;;
33184;SDS011;19550;42.872;25.494;2022-07-06T03:47:05;16.92;;;12.23;;
33184;SDS011;19550;42.872;25.494;2022-07-06T03:49:32;23.80;;;12.65;;
33184;SDS011;19550;42.872;25.494;2022-07-06T03:51:59;15.77;;;12.27;;
33184;SDS011;19550;42.872;25.494;2022-07-06T03:54:26;19.67;;;12.43;;
33184;SDS011;19550;42.872;25.494;2022-07-06T03:56:55;19.65;;;12.93;;
33184;SDS011;19550;42.872;25.494;2022-07-06T03:59:22;18.65;;;12.88;;
33184;SDS011;19550;42.872;25.494;2022-07-06T04:01:49;22.35;;;14.20;;
33184;SDS011;19550;42.872;25.494;2022-07-06T04:04:18;28.95;;;14.43;;
33184;SDS011;19550;42.872;25.494;2022-07-06T04:06:45;24.77;;;14.90;;
33184;SDS011;19550;42.872;25.494;2022-07-06T04:09:12;24.15;;;16.38;;
33184;SDS011;19550;42.872;25.494;2022-07-06T04:11:39;27.33;;;15.48;;
33184;SDS011;19550;42.872;25.494;2022-07-06T04:14:07;27.15;;;15.07;;
33184;SDS011;19550;42.872;25.494;2022-07-06T04:16:34;23.35;;;14.07;;
33184;SDS011;19550;42.872;25.494;2022-07-06T04:19:01;27.65;;;18.80;;
33184;SDS011;19550;42.872;25.494;2022-07-06T04:21:28;28.15;;;20.63;;
33184;SDS011;19550;42.872;25.494;2022-07-06T04:23:55;28.42;;;18.33;;
33184;SDS011;19550;42.872;25.494;2022-07-06T04:26:22;22.55;;;13.50;;
33184;SDS011;19550;42.872;25.494;2022-07-06T04:28:49;25.75;;;15.20;;
33184;SDS011;19550;42.872;25.494;2022-07-06T04:31:18;20.10;;;15.98;;
33184;SDS011;19550;42.872;25.494;2022-07-06T04:33:45;38.53;;;24.17;;
33184;SDS011;19550;42.872;25.494;2022-07-06T04:36:12;28.20;;;16.73;;
33184;SDS011;19550;42.872;25.494;2022-07-06T04:38:39;32.35;;;21.77;;
33184;SDS011;19550;42.872;25.494;2022-07-06T04:41:06;34.20;;;16.02;;
33184;SDS011;19550;42.872;25.494;2022-07-06T04:43:33;28.83;;;15.20;;
33184;SDS011;19550;42.872;25.494;2022-07-06T04:46:00;24.83;;;14.80;;
33184;SDS011;19550;42.872;25.494;2022-07-06T04:48:28;26.25;;;14.57;;
33184;SDS011;19550;42.872;25.494;2022-07-06T04:50:57;24.35;;;13.10;;
33184;SDS011;19550;42.872;25.494;2022-07-06T04:53:24;24.05;;;14.43;;
33184;SDS011;19550;42.872;25.494;2022-07-06T04:55:51;17.67;;;12.80;;
33184;SDS011;19550;42.872;25.494;2022-07-06T04:58:18;20.35;;;12.50;;
33184;SDS011;19550;42.872;25.494;2022-07-06T05:00:45;26.88;;;13.52;;
33184;SDS011;19550;42.872;25.494;2022-07-06T05:03:12;22.50;;;13.40;;
33184;SDS011;19550;42.872;25.494;2022-07-06T05:05:41;31.45;;;14.05;;
33184;SDS011;19550;42.872;25.494;2022-07-06T05:08:08;34.13;;;13.73;;
33184;SDS011;19550;42.872;25.494;2022-07-06T05:10:35;28.38;;;13.80;;
33184;SDS011;19550;42.872;25.494;2022-07-06T05:13:02;26.55;;;13.75;;
33184;SDS011;19550;42.872;25.494;2022-07-06T05:15:29;25.48;;;13.48;;
33184;SDS011;19550;42.872;25.494;2022-07-06T05:17:56;21.38;;;12.65;;
33184;SDS011;19550;42.872;25.494;2022-07-06T05:20:23;23.95;;;12.35;;
33184;SDS011;19550;42.872;25.494;2022-07-06T05:22:51;13.73;;;10.98;;
33184;SDS011;19550;42.872;25.494;2022-07-06T05:25:18;10.98;;;8.90;;
33184;SDS011;19550;42.872;25.494;2022-07-06T05:27:45;20.92;;;12.60;;
33184;SDS011;19550;42.872;25.494;2022-07-06T05:30:12;12.50;;;8.30;;
33184;SDS011;19550;42.872;25.494;2022-07-06T05:32:40;12.20;;;8.65;;
33184;SDS011;19550;42.872;25.494;2022-07-06T05:35:08;10.82;;;8.00;;
33184;SDS011;19550;42.872;25.494;2022-07-06T05:37:35;10.50;;;7.53;;
33184;SDS011;19550;42.872;25.494;2022-07-06T05:40:04;8.68;;;7.75;;
33184;SDS011;19550;42.872;25.494;2022-07-06T05:42:31;8.80;;;7.50;;
33184;SDS011;19550;42.872;25.494;2022-07-06T05:44:58;12.55;;;8.45;;
33184;SDS011;19550;42.872;25.494;2022-07-06T05:47:25;10.73;;;8.45;;
33184;SDS011;19550;42.872;25.494;2022-07-06T05:50:09;10.75;;;8.43;;
33184;SDS011;19550;42.872;25.494;2022-07-06T05:55:08;10.05;;;8.02;;
33184;SDS011;19550;42.872;25.494;2022-07-06T05:57:36;12.63;;;9.85;;
33184;SDS011;19550;42.872;25.494;2022-07-06T06:00:04;16.45;;;8.20;;
33184;SDS011;19550;42.872;25.494;2022-07-06T06:02:38;10.73;;;9.10;;
33184;SDS011;19550;42.872;25.494;2022-07-06T06:05:07;10.85;;;9.00;;
33184;SDS011;19550;42.872;25.494;2022-07-06T06:07:36;11.93;;;9.43;;
33184;SDS011;19550;42.872;25.494;2022-07-06T06:10:04;10.43;;;8.52;;
33184;SDS011;19550;42.872;25.494;2022-07-06T06:12:34;13.87;;;9.37;;
33184;SDS011;19550;42.872;25.494;2022-07-06T06:15:01;11.85;;;9.55;;
33184;SDS011;19550;42.872;25.494;2022-07-06T06:17:28;16.20;;;8.73;;
33184;SDS011;19550;42.872;25.494;2022-07-06T06:19:56;12.23;;;9.48;;
33184;SDS011;19550;42.872;25.494;2022-07-06T06:22:23;12.38;;;9.10;;
33184;SDS011;19550;42.872;25.494;2022-07-06T06:24:50;11.38;;;9.23;;
33184;SDS011;19550;42.872;25.494;2022-07-06T06:27:18;11.55;;;9.48;;
33184;SDS011;19550;42.872;25.494;2022-07-06T06:29:46;13.68;;;8.50;;
33184;SDS011;19550;42.872;25.494;2022-07-06T06:32:13;10.10;;;8.90;;
33184;SDS011;19550;42.872;25.494;2022-07-06T06:34:40;14.98;;;8.60;;
33184;SDS011;19550;42.872;25.494;2022-07-06T06:37:07;9.52;;;8.55;;
33184;SDS011;19550;42.872;25.494;2022-07-06T06:39:34;9.48;;;8.55;;
33184;SDS011;19550;42.872;25.494;2022-07-06T06:42:01;10.43;;;8.30;;
33184;SDS011;19550;42.872;25.494;2022-07-06T06:44:29;10.95;;;8.80;;
33184;SDS011;19550;42.872;25.494;2022-07-06T06:46:57;12.05;;;8.73;;
33184;SDS011;19550;42.872;25.494;2022-07-06T06:49:24;13.45;;;8.43;;
33184;SDS011;19550;42.872;25.494;2022-07-06T06:51:51;10.07;;;8.50;;
33184;SDS011;19550;42.872;25.494;2022-07-06T06:54:18;11.00;;;8.35;;
33184;SDS011;19550;42.872;25.494;2022-07-06T06:56:45;13.18;;;9.57;;
33184;SDS011;19550;42.872;25.494;2022-07-06T06:59:12;11.95;;;8.52;;
33184;SDS011;19550;42.872;25.494;2022-07-06T07:01:39;9.90;;;9.00;;
33184;SDS011;19550;42.872;25.494;2022-07-06T07:04:07;9.88;;;8.60;;
33184;SDS011;19550;42.872;25.494;2022-07-06T07:06:35;9.60;;;8.68;;
33184;SDS011;19550;42.872;25.494;2022-07-06T07:09:02;9.93;;;8.45;;
33184;SDS011;19550;42.872;25.494;2022-07-06T07:11:30;10.55;;;8.93;;
33184;SDS011;19550;42.872;25.494;2022-07-06T07:13:57;13.05;;;9.13;;
33184;SDS011;19550;42.872;25.494;2022-07-06T07:16:25;9.95;;;8.40;;
33184;SDS011;19550;42.872;25.494;2022-07-06T07:18:52;12.00;;;9.30;;
33184;SDS011;19550;42.872;25.494;2022-07-06T07:21:21;12.63;;;9.07;;
33184;SDS011;19550;42.872;25.494;2022-07-06T07:23:48;11.73;;;8.68;;
33184;SDS011;19550;42.872;25.494;2022-07-06T07:26:15;11.88;;;8.73;;
33184;SDS011;19550;42.872;25.494;2022-07-06T07:28:43;13.30;;;8.23;;
33184;SDS011;19550;42.872;25.494;2022-07-06T07:31:10;9.45;;;8.13;;
33184;SDS011;19550;42.872;25.494;2022-07-06T07:33:37;11.52;;;8.15;;
33184;SDS011;19550;42.872;25.494;2022-07-06T07:36:04;9.35;;;8.35;;
33184;SDS011;19550;42.872;25.494;2022-07-06T07:38:33;10.15;;;8.57;;
33184;SDS011;19550;42.872;25.494;2022-07-06T07:41:00;10.65;;;8.25;;
33184;SDS011;19550;42.872;25.494;2022-07-06T07:43:27;11.70;;;8.00;;
33184;SDS011;19550;42.872;25.494;2022-07-06T07:45:54;10.00;;;8.35;;
33184;SDS011;19550;42.872;25.494;2022-07-06T07:48:21;10.95;;;9.27;;
33184;SDS011;19550;42.872;25.494;2022-07-06T07:50:48;14.23;;;9.02;;
33184;SDS011;19550;42.872;25.494;2022-07-06T07:53:15;8.80;;;7.97;;
33184;SDS011;19550;42.872;25.494;2022-07-06T07:55:44;11.45;;;8.48;;
33184;SDS011;19550;42.872;25.494;2022-07-06T07:58:11;10.85;;;9.02;;
33184;SDS011;19550;42.872;25.494;2022-07-06T08:00:38;10.00;;;8.80;;
33184;SDS011;19550;42.872;25.494;2022-07-06T08:03:05;13.48;;;9.50;;
33184;SDS011;19550;42.872;25.494;2022-07-06T08:05:32;12.05;;;9.07;;
33184;SDS011;19550;42.872;25.494;2022-07-06T08:07:59;10.57;;;8.90;;
33184;SDS011;19550;42.872;25.494;2022-07-06T08:10:26;12.90;;;9.20;;
33184;SDS011;19550;42.872;25.494;2022-07-06T08:12:54;11.10;;;9.60;;
33184;SDS011;19550;42.872;25.494;2022-07-06T08:15:21;14.13;;;10.10;;
33184;SDS011;19550;42.872;25.494;2022-07-06T08:17:48;11.27;;;10.10;;
33184;SDS011;19550;42.872;25.494;2022-07-06T08:20:15;30.15;;;15.75;;
33184;SDS011;19550;42.872;25.494;2022-07-06T08:22:42;13.77;;;9.82;;
33184;SDS011;19550;42.872;25.494;2022-07-06T08:25:09;18.05;;;10.50;;
33184;SDS011;19550;42.872;25.494;2022-07-06T08:27:37;12.25;;;10.85;;
33184;SDS011;19550;42.872;25.494;2022-07-06T08:30:06;15.00;;;10.10;;
33184;SDS011;19550;42.872;25.494;2022-07-06T08:32:36;13.70;;;10.20;;
33184;SDS011;19550;42.872;25.494;2022-07-06T08:37:31;11.05;;;9.85;;
33184;SDS011;19550;42.872;25.494;2022-07-06T08:39:58;10.02;;;9.02;;
33184;SDS011;19550;42.872;25.494;2022-07-06T08:42:25;12.07;;;9.90;;
33184;SDS011;19550;42.872;25.494;2022-07-06T08:44:56;11.32;;;10.15;;
33184;SDS011;19550;42.872;25.494;2022-07-06T08:47:27;11.82;;;9.98;;
33184;SDS011;19550;42.872;25.494;2022-07-06T08:49:54;10.63;;;9.20;;
33184;SDS011;19550;42.872;25.494;2022-07-06T08:52:22;10.77;;;9.60;;
33184;SDS011;19550;42.872;25.494;2022-07-06T08:54:49;11.57;;;9.38;;
33184;SDS011;19550;42.872;25.494;2022-07-06T08:57:17;11.23;;;9.40;;
33184;SDS011;19550;42.872;25.494;2022-07-06T08:59:44;11.73;;;10.43;;
33184;SDS011;19550;42.872;25.494;2022-07-06T09:02:11;11.07;;;9.63;;
33184;SDS011;19550;42.872;25.494;2022-07-06T09:04:41;12.88;;;10.57;;
33184;SDS011;19550;42.872;25.494;2022-07-06T09:09:36;11.88;;;10.52;;
33184;SDS011;19550;42.872;25.494;2022-07-06T09:12:09;13.75;;;10.80;;
33184;SDS011;19550;42.872;25.494;2022-07-06T09:14:38;13.40;;;10.95;;
33184;SDS011;19550;42.872;25.494;2022-07-06T09:17:06;16.38;;;11.32;;
33184;SDS011;19550;42.872;25.494;2022-07-06T09:19:34;16.85;;;11.20;;
33184;SDS011;19550;42.872;25.494;2022-07-06T09:22:03;15.73;;;11.80;;
33184;SDS011;19550;42.872;25.494;2022-07-06T09:24:31;13.73;;;12.18;;
33184;SDS011;19550;42.872;25.494;2022-07-06T09:26:58;12.82;;;11.38;;
33184;SDS011;19550;42.872;25.494;2022-07-06T09:29:29;14.93;;;12.25;;
33184;SDS011;19550;42.872;25.494;2022-07-06T09:31:57;19.35;;;12.25;;
33184;SDS011;19550;42.872;25.494;2022-07-06T09:34:24;15.43;;;13.05;;
33184;SDS011;19550;42.872;25.494;2022-07-06T09:36:52;14.00;;;12.13;;
33184;SDS011;19550;42.872;25.494;2022-07-06T09:39:21;18.92;;;12.52;;
33184;SDS011;19550;42.872;25.494;2022-07-06T09:41:50;28.55;;;13.20;;
33184;SDS011;19550;42.872;25.494;2022-07-06T09:44:19;20.85;;;11.52;;
33184;SDS011;19550;42.872;25.494;2022-07-06T09:46:47;12.43;;;10.77;;
33184;SDS011;19550;42.872;25.494;2022-07-06T09:49:16;17.92;;;11.13;;
33184;SDS011;19550;42.872;25.494;2022-07-06T09:54:11;12.10;;;10.30;;
33184;SDS011;19550;42.872;25.494;2022-07-06T09:56:40;11.23;;;9.75;;
33184;SDS011;19550;42.872;25.494;2022-07-06T10:01:35;10.32;;;8.82;;
33184;SDS011;19550;42.872;25.494;2022-07-06T10:04:03;10.43;;;9.13;;
33184;SDS011;19550;42.872;25.494;2022-07-06T10:06:31;9.60;;;8.60;;
33184;SDS011;19550;42.872;25.494;2022-07-06T10:08:58;12.10;;;9.40;;
33184;SDS011;19550;42.872;25.494;2022-07-06T10:11:27;10.48;;;8.88;;
33184;SDS011;19550;42.872;25.494;2022-07-06T10:13:57;9.73;;;8.15;;
33184;SDS011;19550;42.872;25.494;2022-07-06T10:16:24;11.05;;;8.82;;
33184;SDS011;19550;42.872;25.494;2022-07-06T10:18:52;11.90;;;7.95;;
33184;SDS011;19550;42.872;25.494;2022-07-06T10:21:20;12.43;;;8.55;;
33184;SDS011;19550;42.872;25.494;2022-07-06T10:23:48;10.60;;;8.55;;
33184;SDS011;19550;42.872;25.494;2022-07-06T10:26:16;8.68;;;7.88;;
33184;SDS011;19550;42.872;25.494;2022-07-06T10:28:44;12.32;;;8.73;;
33184;SDS011;19550;42.872;25.494;2022-07-06T10:31:14;8.98;;;7.93;;
33184;SDS011;19550;42.872;25.494;2022-07-06T10:33:42;12.45;;;8.15;;
33184;SDS011;19550;42.872;25.494;2022-07-06T10:36:10;9.40;;;8.13;;
33184;SDS011;19550;42.872;25.494;2022-07-06T10:38:38;10.57;;;8.25;;
33184;SDS011;19550;42.872;25.494;2022-07-06T10:41:05;14.43;;;9.75;;
33184;SDS011;19550;42.872;25.494;2022-07-06T10:43:33;11.13;;;8.45;;
33184;SDS011;19550;42.872;25.494;2022-07-06T10:46:07;10.50;;;8.23;;
33184;SDS011;19550;42.872;25.494;2022-07-06T10:48:37;10.57;;;8.70;;
33184;SDS011;19550;42.872;25.494;2022-07-06T10:51:05;10.75;;;8.20;;
33184;SDS011;19550;42.872;25.494;2022-07-06T10:53:34;14.23;;;9.05;;
33184;SDS011;19550;42.872;25.494;2022-07-06T10:56:03;9.20;;;8.23;;
33184;SDS011;19550;42.872;25.494;2022-07-06T10:58:46;11.68;;;8.30;;
33184;SDS011;19550;42.872;25.494;2022-07-06T11:01:16;9.27;;;8.15;;
33184;SDS011;19550;42.872;25.494;2022-07-06T11:03:47;12.35;;;7.90;;
33184;SDS011;19550;42.872;25.494;2022-07-06T11:06:16;10.73;;;8.30;;
33184;SDS011;19550;42.872;25.494;2022-07-06T11:08:44;12.32;;;8.35;;
33184;SDS011;19550;42.872;25.494;2022-07-06T11:11:16;8.95;;;7.35;;
33184;SDS011;19550;42.872;25.494;2022-07-06T11:13:48;10.23;;;7.50;;
33184;SDS011;19550;42.872;25.494;2022-07-06T11:16:23;8.93;;;7.10;;
33184;SDS011;19550;42.872;25.494;2022-07-06T11:21:40;11.23;;;7.47;;
33184;SDS011;19550;42.872;25.494;2022-07-06T11:24:11;7.22;;;6.53;;
33184;SDS011;19550;42.872;25.494;2022-07-06T11:26:39;11.35;;;7.25;;
33184;SDS011;19550;42.872;25.494;2022-07-06T11:29:08;7.93;;;7.20;;
33184;SDS011;19550;42.872;25.494;2022-07-06T11:31:36;9.02;;;7.07;;
33184;SDS011;19550;42.872;25.494;2022-07-06T11:34:05;8.93;;;6.90;;
33184;SDS011;19550;42.872;25.494;2022-07-06T11:36:34;9.32;;;7.47;;
33184;SDS011;19550;42.872;25.494;2022-07-06T11:39:03;16.15;;;7.30;;
33184;SDS011;19550;42.872;25.494;2022-07-06T11:41:31;9.43;;;7.47;;
33184;SDS011;19550;42.872;25.494;2022-07-06T11:43:58;9.40;;;7.80;;
33184;SDS011;19550;42.872;25.494;2022-07-06T11:46:26;8.32;;;7.03;;
33184;SDS011;19550;42.872;25.494;2022-07-06T11:48:55;7.63;;;6.93;;
33184;SDS011;19550;42.872;25.494;2022-07-06T11:51:23;8.35;;;7.25;;
33184;SDS011;19550;42.872;25.494;2022-07-06T11:53:54;9.60;;;7.30;;
33184;SDS011;19550;42.872;25.494;2022-07-06T11:56:22;11.45;;;7.93;;
33184;SDS011;19550;42.872;25.494;2022-07-06T11:58:52;8.43;;;7.57;;
33184;SDS011;19550;42.872;25.494;2022-07-06T12:01:21;9.55;;;7.78;;
33184;SDS011;19550;42.872;25.494;2022-07-06T12:03:48;10.25;;;7.25;;
33184;SDS011;19550;42.872;25.494;2022-07-06T12:06:17;9.93;;;8.02;;
33184;SDS011;19550;42.872;25.494;2022-07-06T12:08:46;7.90;;;7.20;;
33184;SDS011;19550;42.872;25.494;2022-07-06T12:11:22;8.93;;;8.00;;
33184;SDS011;19550;42.872;25.494;2022-07-06T12:13:50;11.30;;;8.13;;
33184;SDS011;19550;42.872;25.494;2022-07-06T12:16:19;11.93;;;8.38;;
33184;SDS011;19550;42.872;25.494;2022-07-06T12:18:49;9.13;;;8.23;;
33184;SDS011;19550;42.872;25.494;2022-07-06T12:21:17;12.10;;;8.07;;
33184;SDS011;19550;42.872;25.494;2022-07-06T12:23:48;11.88;;;8.85;;
33184;SDS011;19550;42.872;25.494;2022-07-06T12:26:18;9.30;;;8.32;;
33184;SDS011;19550;42.872;25.494;2022-07-06T12:29:00;9.60;;;8.00;;
33184;SDS011;19550;42.872;25.494;2022-07-06T12:31:31;10.43;;;8.25;;
33184;SDS011;19550;42.872;25.494;2022-07-06T12:33:59;9.73;;;8.70;;
33184;SDS011;19550;42.872;25.494;2022-07-06T12:36:26;13.43;;;8.68;;
33184;SDS011;19550;42.872;25.494;2022-07-06T12:38:53;12.70;;;10.82;;
33184;SDS011;19550;42.872;25.494;2022-07-06T12:44:12;11.63;;;9.02;;
33184;SDS011;19550;42.872;25.494;2022-07-06T12:46:39;13.43;;;9.40;;
33184;SDS011;19550;42.872;25.494;2022-07-06T12:49:12;10.15;;;8.85;;
33184;SDS011;19550;42.872;25.494;2022-07-06T12:51:54;9.38;;;8.30;;
33184;SDS011;19550;42.872;25.494;2022-07-06T12:54:23;11.73;;;8.82;;
33184;SDS011;19550;42.872;25.494;2022-07-06T12:56:59;9.55;;;8.52;;
33184;SDS011;19550;42.872;25.494;2022-07-06T12:59:39;9.43;;;8.18;;
33184;SDS011;19550;42.872;25.494;2022-07-06T13:02:09;12.35;;;8.30;;
33184;SDS011;19550;42.872;25.494;2022-07-06T13:04:43;9.10;;;8.20;;
33184;SDS011;19550;42.872;25.494;2022-07-06T13:07:20;9.02;;;7.85;;
33184;SDS011;19550;42.872;25.494;2022-07-06T13:09:47;10.40;;;8.63;;
33184;SDS011;19550;42.872;25.494;2022-07-06T13:12:14;13.25;;;9.60;;
33184;SDS011;19550;42.872;25.494;2022-07-06T13:14:42;10.68;;;8.90;;
33184;SDS011;19550;42.872;25.494;2022-07-06T13:17:09;9.55;;;8.52;;
33184;SDS011;19550;42.872;25.494;2022-07-06T13:19:36;9.98;;;8.95;;
33184;SDS011;19550;42.872;25.494;2022-07-06T13:22:03;9.80;;;8.80;;
33184;SDS011;19550;42.872;25.494;2022-07-06T13:24:30;10.00;;;9.00;;
33184;SDS011;19550;42.872;25.494;2022-07-06T13:26:58;11.23;;;9.52;;
33184;SDS011;19550;42.872;25.494;2022-07-06T13:29:25;11.07;;;9.02;;
33184;SDS011;19550;42.872;25.494;2022-07-06T13:31:53;10.75;;;9.63;;
33184;SDS011;19550;42.872;25.494;2022-07-06T13:34:20;14.60;;;9.38;;
33184;SDS011;19550;42.872;25.494;2022-07-06T13:36:48;11.48;;;9.65;;
33184;SDS011;19550;42.872;25.494;2022-07-06T13:39:16;13.20;;;10.27;;
33184;SDS011;19550;42.872;25.494;2022-07-06T13:41:43;17.48;;;9.05;;
33184;SDS011;19550;42.872;25.494;2022-07-06T13:44:10;10.98;;;9.40;;
33184;SDS011;19550;42.872;25.494;2022-07-06T13:46:38;10.40;;;9.43;;
33184;SDS011;19550;42.872;25.494;2022-07-06T13:49:07;11.80;;;9.57;;
33184;SDS011;19550;42.872;25.494;2022-07-06T13:51:34;11.52;;;9.90;;
33184;SDS011;19550;42.872;25.494;2022-07-06T13:54:01;11.70;;;9.57;;
33184;SDS011;19550;42.872;25.494;2022-07-06T13:56:28;10.88;;;9.20;;
33184;SDS011;19550;42.872;25.494;2022-07-06T13:58:55;15.70;;;9.50;;
33184;SDS011;19550;42.872;25.494;2022-07-06T14:01:23;10.43;;;9.38;;
33184;SDS011;19550;42.872;25.494;2022-07-06T14:03:50;12.88;;;9.40;;
33184;SDS011;19550;42.872;25.494;2022-07-06T14:06:18;12.02;;;9.35;;
33184;SDS011;19550;42.872;25.494;2022-07-06T14:08:46;10.35;;;9.35;;
33184;SDS011;19550;42.872;25.494;2022-07-06T14:11:13;12.73;;;10.75;;
33184;SDS011;19550;42.872;25.494;2022-07-06T14:13:45;11.07;;;9.98;;
33184;SDS011;19550;42.872;25.494;2022-07-06T14:16:12;15.00;;;11.32;;
33184;SDS011;19550;42.872;25.494;2022-07-06T14:18:39;12.40;;;11.10;;
33184;SDS011;19550;42.872;25.494;2022-07-06T14:21:08;13.38;;;11.98;;
33184;SDS011;19550;42.872;25.494;2022-07-06T14:23:38;12.90;;;11.13;;
33184;SDS011;19550;42.872;25.494;2022-07-06T14:26:05;12.63;;;11.33;;
33184;SDS011;19550;42.872;25.494;2022-07-06T14:28:36;16.42;;;12.68;;
33184;SDS011;19550;42.872;25.494;2022-07-06T14:31:03;14.32;;;12.80;;
33184;SDS011;19550;42.872;25.494;2022-07-06T14:33:31;13.38;;;12.05;;
33184;SDS011;19550;42.872;25.494;2022-07-06T14:35:57;15.02;;;12.82;;
33184;SDS011;19550;42.872;25.494;2022-07-06T14:38:25;14.82;;;13.23;;
33184;SDS011;19550;42.872;25.494;2022-07-06T14:40:55;16.23;;;14.63;;